Other Surface Observations
Issued by NWS Great Falls, MT

Home | Current Version | Previous Version | Text Only | Print | Product List | Glossary On
Versions: 1 2 3 4 5 6 7 8 9 10 11 12 13 14 15 16 17 18 19 20 21 22 23 24 25 26 27 28 29 30 31 32 33 34 35 36 37 38 39 40 41 42 43 44 45 46 47 48 49 50
239
SXUS55 KTFX 242315
OSOTFX
AREA AWOS OBSERVATIONS
NATIONAL WEATHER SERVICE GREAT FALLS MT
0514 PM MDT SAT SEP 24 2016

METAR KPWD 242315Z AUTO 34018G25KT 10SM A2983 RMK PLENTYWOOD
METAR KPO1 242315Z AUTO 33013G22KT 10SM A2989 RMK POPLAR
METAR K1S3 242315Z AUTO 26011G16KT 10SM A2999 RMK FORSYTH
METAR KS71 242315Z AUTO 33010KT 10SM 16/08 A3006 RMK CHINOOK
METAR K38S 242315Z AUTO 29013G16KT 10SM 13/M01 A3029 RMK DEER LODGE
METAR K3U3 242315Z AUTO 26011KT 10SM 13/M02 A3027 RMK ANACONDA
METAR K6S5 242315Z AUTO 30005KT 10SM 15/00 A3030 RMK HAMILTON
METAR KS59 242315Z AUTO 28008KT 10SM 18/00 A3023 RMK LIBBY
METAR K88M 242315Z AUTO 23009KT 10SM 19/M02 A3019 RMK EUREKA



USA.gov is the U.S. government's official web portal to all federal, state and local government web resources and services.